sensor_id;sensor_type;location;lat;lon;timestamp;pressure;altitude;pressure_sealevel;temperature;humidity
69127;BME280;56688;50.234;19.292;2023-02-11T00:00:21;100194.63;;;-1.40;67.27
69127;BME280;56688;50.234;19.292;2023-02-11T00:02:47;100187.00;;;-1.41;67.19
69127;BME280;56688;50.234;19.292;2023-02-11T00:05:14;100180.99;;;-1.43;67.36
69127;BME280;56688;50.234;19.292;2023-02-11T00:07:41;100175.62;;;-1.48;67.00
69127;BME280;56688;50.234;19.292;2023-02-11T00:10:08;100175.89;;;-1.50;67.26
69127;BME280;56688;50.234;19.292;2023-02-11T00:12:36;100180.08;;;-1.53;67.52
69127;BME280;56688;50.234;19.292;2023-02-11T00:15:04;100177.88;;;-1.58;67.47
69127;BME280;56688;50.234;19.292;2023-02-11T00:17:32;100181.41;;;-1.59;67.83
69127;BME280;56688;50.234;19.292;2023-02-11T00:19:58;100177.52;;;-1.58;67.84
69127;BME280;56688;50.234;19.292;2023-02-11T00:22:26;100185.27;;;-1.56;67.72
69127;BME280;56688;50.234;19.292;2023-02-11T00:24:53;100186.52;;;-1.56;67.74
69127;BME280;56688;50.234;19.292;2023-02-11T00:27:19;100181.34;;;-1.58;67.68
69127;BME280;56688;50.234;19.292;2023-02-11T00:29:46;100176.56;;;-1.60;67.73
69127;BME280;56688;50.234;19.292;2023-02-11T00:32:13;100168.64;;;-1.63;68.06
69127;BME280;56688;50.234;19.292;2023-02-11T00:34:40;100166.13;;;-1.65;68.06
69127;BME280;56688;50.234;19.292;2023-02-11T00:37:07;100156.54;;;-1.70;68.13
69127;BME280;56688;50.234;19.292;2023-02-11T00:39:34;100152.36;;;-1.74;68.08
69127;BME280;56688;50.234;19.292;2023-02-11T00:42:02;100140.48;;;-1.78;68.38
69127;BME280;56688;50.234;19.292;2023-02-11T00:44:29;100146.48;;;-1.79;68.35
69127;BME280;56688;50.234;19.292;2023-02-11T00:46:56;100144.01;;;-1.78;68.34
69127;BME280;56688;50.234;19.292;2023-02-11T00:49:22;100142.55;;;-1.77;68.65
69127;BME280;56688;50.234;19.292;2023-02-11T00:51:50;100139.03;;;-1.76;68.83
69127;BME280;56688;50.234;19.292;2023-02-11T00:54:18;100138.98;;;-1.75;68.65
69127;BME280;56688;50.234;19.292;2023-02-11T00:56:45;100135.32;;;-1.75;68.90
69127;BME280;56688;50.234;19.292;2023-02-11T00:59:12;100126.65;;;-1.77;68.78
69127;BME280;56688;50.234;19.292;2023-02-11T01:01:42;100123.95;;;-1.79;68.95
69127;BME280;56688;50.234;19.292;2023-02-11T01:04:09;100115.91;;;-1.82;68.95
69127;BME280;56688;50.234;19.292;2023-02-11T01:06:36;100112.93;;;-1.86;69.12
69127;BME280;56688;50.234;19.292;2023-02-11T01:09:04;100110.15;;;-1.90;69.27
69127;BME280;56688;50.234;19.292;2023-02-11T01:11:34;100103.73;;;-1.91;69.39
69127;BME280;56688;50.234;19.292;2023-02-11T01:14:01;100096.72;;;-1.90;69.51
69127;BME280;56688;50.234;19.292;2023-02-11T01:16:28;100079.10;;;-1.87;69.56
69127;BME280;56688;50.234;19.292;2023-02-11T01:18:55;100060.52;;;-1.86;69.62
69127;BME280;56688;50.234;19.292;2023-02-11T01:21:21;100053.29;;;-1.84;69.62
69127;BME280;56688;50.234;19.292;2023-02-11T01:23:49;100055.55;;;-1.84;69.69
69127;BME280;56688;50.234;19.292;2023-02-11T01:26:16;100048.02;;;-1.83;69.80
69127;BME280;56688;50.234;19.292;2023-02-11T01:28:43;100033.95;;;-1.82;69.89
69127;BME280;56688;50.234;19.292;2023-02-11T01:31:10;100021.42;;;-1.83;69.84
69127;BME280;56688;50.234;19.292;2023-02-11T01:33:37;100018.10;;;-1.82;69.95
69127;BME280;56688;50.234;19.292;2023-02-11T01:36:05;100026.20;;;-1.80;69.90
69127;BME280;56688;50.234;19.292;2023-02-11T01:38:33;100027.55;;;-1.76;69.90
69127;BME280;56688;50.234;19.292;2023-02-11T01:41:06;100043.00;;;-1.70;69.69
69127;BME280;56688;50.234;19.292;2023-02-11T01:43:38;100059.23;;;-1.66;69.72
69127;BME280;56688;50.234;19.292;2023-02-11T01:51:38;100041.02;;;-1.61;69.44
69127;BME280;56688;50.234;19.292;2023-02-11T01:54:08;100044.02;;;-1.62;69.40
69127;BME280;56688;50.234;19.292;2023-02-11T01:56:54;100048.74;;;-1.62;69.36
69127;BME280;56688;50.234;19.292;2023-02-11T01:59:45;100054.89;;;-1.59;69.27
69127;BME280;56688;50.234;19.292;2023-02-11T02:02:17;100053.84;;;-1.56;69.28
69127;BME280;56688;50.234;19.292;2023-02-11T02:04:52;100046.00;;;-1.52;69.21
69127;BME280;56688;50.234;19.292;2023-02-11T02:07:30;100043.46;;;-1.51;69.30
69127;BME280;56688;50.234;19.292;2023-02-11T02:10:04;100043.73;;;-1.49;69.02
69127;BME280;56688;50.234;19.292;2023-02-11T02:12:35;100040.38;;;-1.48;68.91
69127;BME280;56688;50.234;19.292;2023-02-11T02:17:55;100031.86;;;-1.49;69.29
69127;BME280;56688;50.234;19.292;2023-02-11T02:25:45;100026.02;;;-1.41;69.14
69127;BME280;56688;50.234;19.292;2023-02-11T02:28:32;100016.74;;;-1.36;69.35
69127;BME280;56688;50.234;19.292;2023-02-11T02:33:54;99991.98;;;-1.31;69.20
69127;BME280;56688;50.234;19.292;2023-02-11T02:36:40;99977.38;;;-1.29;68.94
69127;BME280;56688;50.234;19.292;2023-02-11T02:39:17;99973.14;;;-1.28;69.01
69127;BME280;56688;50.234;19.292;2023-02-11T02:41:47;99963.18;;;-1.28;68.77
69127;BME280;56688;50.234;19.292;2023-02-11T02:44:18;99959.45;;;-1.27;68.70
69127;BME280;56688;50.234;19.292;2023-02-11T02:46:45;99954.02;;;-1.24;68.73
69127;BME280;56688;50.234;19.292;2023-02-11T02:49:14;99944.86;;;-1.19;68.38
69127;BME280;56688;50.234;19.292;2023-02-11T03:02:37;99899.62;;;-1.00;67.58
69127;BME280;56688;50.234;19.292;2023-02-11T03:12:43;99909.23;;;-0.80;66.78
69127;BME280;56688;50.234;19.292;2023-02-11T03:15:12;99912.57;;;-0.73;66.53
69127;BME280;56688;50.234;19.292;2023-02-11T03:17:41;99906.17;;;-0.68;66.29
69127;BME280;56688;50.234;19.292;2023-02-11T03:20:12;99905.41;;;-0.65;66.29
69127;BME280;56688;50.234;19.292;2023-02-11T03:22:47;99905.27;;;-0.62;66.43
69127;BME280;56688;50.234;19.292;2023-02-11T03:25:15;99910.85;;;-0.62;66.13
69127;BME280;56688;50.234;19.292;2023-02-11T03:27:52;99902.47;;;-0.62;66.38
69127;BME280;56688;50.234;19.292;2023-02-11T03:30:26;99905.39;;;-0.61;66.14
69127;BME280;56688;50.234;19.292;2023-02-11T03:33:06;99911.38;;;-0.58;66.32
69127;BME280;56688;50.234;19.292;2023-02-11T03:35:39;99912.75;;;-0.55;66.40
69127;BME280;56688;50.234;19.292;2023-02-11T03:38:13;99906.70;;;-0.52;65.96
69127;BME280;56688;50.234;19.292;2023-02-11T03:40:42;99889.98;;;-0.51;66.07
69127;BME280;56688;50.234;19.292;2023-02-11T03:45:44;99890.08;;;-0.49;66.15
69127;BME280;56688;50.234;19.292;2023-02-11T03:48:17;99879.48;;;-0.51;66.21
69127;BME280;56688;50.234;19.292;2023-02-11T03:50:47;99872.96;;;-0.53;66.32
69127;BME280;56688;50.234;19.292;2023-02-11T03:53:16;99871.42;;;-0.57;66.23
69127;BME280;56688;50.234;19.292;2023-02-11T03:55:46;99861.02;;;-0.59;66.46
69127;BME280;56688;50.234;19.292;2023-02-11T03:58:14;99854.82;;;-0.58;66.09
69127;BME280;56688;50.234;19.292;2023-02-11T04:00:42;99850.08;;;-0.54;66.47
69127;BME280;56688;50.234;19.292;2023-02-11T04:03:10;99841.02;;;-0.51;66.05
69127;BME280;56688;50.234;19.292;2023-02-11T04:05:37;99839.21;;;-0.51;66.00
69127;BME280;56688;50.234;19.292;2023-02-11T04:08:05;99827.96;;;-0.50;65.68
69127;BME280;56688;50.234;19.292;2023-02-11T04:10:32;99819.11;;;-0.51;65.76
69127;BME280;56688;50.234;19.292;2023-02-11T04:12:59;99809.77;;;-0.53;65.89
69127;BME280;56688;50.234;19.292;2023-02-11T04:15:25;99806.33;;;-0.54;65.80
69127;BME280;56688;50.234;19.292;2023-02-11T04:17:52;99803.17;;;-0.58;65.69
69127;BME280;56688;50.234;19.292;2023-02-11T04:20:19;99802.21;;;-0.59;65.79
69127;BME280;56688;50.234;19.292;2023-02-11T04:22:46;99797.80;;;-0.58;65.73
69127;BME280;56688;50.234;19.292;2023-02-11T04:25:13;99793.55;;;-0.57;65.82
69127;BME280;56688;50.234;19.292;2023-02-11T04:27:40;99789.69;;;-0.57;65.76
69127;BME280;56688;50.234;19.292;2023-02-11T04:30:07;99786.41;;;-0.58;65.83
69127;BME280;56688;50.234;19.292;2023-02-11T04:32:34;99781.23;;;-0.59;66.16
69127;BME280;56688;50.234;19.292;2023-02-11T04:35:00;99775.59;;;-0.62;66.20
69127;BME280;56688;50.234;19.292;2023-02-11T04:37:28;99772.74;;;-0.64;66.40
69127;BME280;56688;50.234;19.292;2023-02-11T04:39:55;99773.45;;;-0.67;66.35
69127;BME280;56688;50.234;19.292;2023-02-11T04:42:22;99778.54;;;-0.67;66.56
69127;BME280;56688;50.234;19.292;2023-02-11T04:44:49;99780.15;;;-0.65;66.29
69127;BME280;56688;50.234;19.292;2023-02-11T04:47:16;99794.14;;;-0.62;66.35
69127;BME280;56688;50.234;19.292;2023-02-11T04:49:43;99801.88;;;-0.59;66.42
69127;BME280;56688;50.234;19.292;2023-02-11T04:52:10;99796.52;;;-0.57;66.36
69127;BME280;56688;50.234;19.292;2023-02-11T04:54:37;99795.02;;;-0.59;66.60
69127;BME280;56688;50.234;19.292;2023-02-11T04:57:04;99788.48;;;-0.58;66.62
69127;BME280;56688;50.234;19.292;2023-02-11T04:59:31;99783.59;;;-0.61;66.74
69127;BME280;56688;50.234;19.292;2023-02-11T05:01:57;99784.87;;;-0.59;66.79
69127;BME280;56688;50.234;19.292;2023-02-11T05:04:24;99775.06;;;-0.56;66.96
69127;BME280;56688;50.234;19.292;2023-02-11T05:06:51;99776.85;;;-0.53;66.63
69127;BME280;56688;50.234;19.292;2023-02-11T05:09:18;99787.64;;;-0.52;66.65
69127;BME280;56688;50.234;19.292;2023-02-11T05:11:45;99782.50;;;-0.48;66.76
69127;BME280;56688;50.234;19.292;2023-02-11T05:14:12;99780.17;;;-0.47;67.05
69127;BME280;56688;50.234;19.292;2023-02-11T05:16:39;99775.98;;;-0.47;67.05
69127;BME280;56688;50.234;19.292;2023-02-11T05:19:06;99774.56;;;-0.47;66.87
69127;BME280;56688;50.234;19.292;2023-02-11T05:21:33;99774.01;;;-0.43;66.86
69127;BME280;56688;50.234;19.292;2023-02-11T05:24:00;99762.52;;;-0.38;66.93
69127;BME280;56688;50.234;19.292;2023-02-11T05:26:27;99767.88;;;-0.34;66.90
69127;BME280;56688;50.234;19.292;2023-02-11T05:28:53;99766.67;;;-0.31;66.66
69127;BME280;56688;50.234;19.292;2023-02-11T05:31:20;99764.30;;;-0.26;66.81
69127;BME280;56688;50.234;19.292;2023-02-11T05:33:47;99763.01;;;-0.25;66.67
69127;BME280;56688;50.234;19.292;2023-02-11T05:36:14;99761.52;;;-0.24;66.65
69127;BME280;56688;50.234;19.292;2023-02-11T05:38:42;99767.15;;;-0.18;66.58
69127;BME280;56688;50.234;19.292;2023-02-11T05:41:10;99773.30;;;-0.16;66.64
69127;BME280;56688;50.234;19.292;2023-02-11T05:43:37;99777.31;;;-0.12;66.50
69127;BME280;56688;50.234;19.292;2023-02-11T05:46:04;99778.30;;;-0.11;66.63
69127;BME280;56688;50.234;19.292;2023-02-11T05:48:31;99777.86;;;-0.10;66.45
69127;BME280;56688;50.234;19.292;2023-02-11T05:50:58;99778.08;;;-0.11;66.73
69127;BME280;56688;50.234;19.292;2023-02-11T05:53:25;99775.16;;;-0.12;67.01
69127;BME280;56688;50.234;19.292;2023-02-11T05:55:52;99771.31;;;-0.12;67.05
69127;BME280;56688;50.234;19.292;2023-02-11T05:58:19;99759.55;;;-0.08;67.05
69127;BME280;56688;50.234;19.292;2023-02-11T06:00:46;99744.39;;;-0.06;67.08
69127;BME280;56688;50.234;19.292;2023-02-11T06:03:13;99733.52;;;-0.03;66.95
69127;BME280;56688;50.234;19.292;2023-02-11T06:05:41;99730.48;;;-0.02;66.80
69127;BME280;56688;50.234;19.292;2023-02-11T06:08:09;99730.95;;;-0.02;66.95
69127;BME280;56688;50.234;19.292;2023-02-11T06:10:36;99727.08;;;-0.01;66.76
69127;BME280;56688;50.234;19.292;2023-02-11T06:13:03;99722.02;;;-0.02;66.76
69127;BME280;56688;50.234;19.292;2023-02-11T06:15:30;99716.71;;;-0.01;66.70
69127;BME280;56688;50.234;19.292;2023-02-11T06:17:56;99707.60;;;0.03;66.45
69127;BME280;56688;50.234;19.292;2023-02-11T06:20:23;99708.60;;;0.06;66.34
69127;BME280;56688;50.234;19.292;2023-02-11T06:22:50;99701.04;;;0.10;66.22
69127;BME280;56688;50.234;19.292;2023-02-11T06:25:17;99708.36;;;0.13;66.22
69127;BME280;56688;50.234;19.292;2023-02-11T06:27:44;99723.17;;;0.14;66.36
69127;BME280;56688;50.234;19.292;2023-02-11T06:30:11;99719.44;;;0.15;66.32
69127;BME280;56688;50.234;19.292;2023-02-11T06:32:38;99717.35;;;0.15;66.35
69127;BME280;56688;50.234;19.292;2023-02-11T06:35:11;99709.86;;;0.17;66.51
69127;BME280;56688;50.234;19.292;2023-02-11T06:37:40;99695.99;;;0.20;66.59
69127;BME280;56688;50.234;19.292;2023-02-11T06:40:08;99682.02;;;0.22;66.40
69127;BME280;56688;50.234;19.292;2023-02-11T06:42:35;99678.25;;;0.24;66.45
69127;BME280;56688;50.234;19.292;2023-02-11T06:45:04;99677.84;;;0.25;66.17
69127;BME280;56688;50.234;19.292;2023-02-11T06:47:33;99687.77;;;0.26;66.17
69127;BME280;56688;50.234;19.292;2023-02-11T06:50:00;99682.69;;;0.26;66.51
69127;BME280;56688;50.234;19.292;2023-02-11T06:52:26;99687.64;;;0.28;66.17
69127;BME280;56688;50.234;19.292;2023-02-11T06:54:53;99688.06;;;0.33;66.32
69127;BME280;56688;50.234;19.292;2023-02-11T06:57:20;99696.43;;;0.36;65.80
69127;BME280;56688;50.234;19.292;2023-02-11T06:59:47;99694.59;;;0.40;65.78
69127;BME280;56688;50.234;19.292;2023-02-11T07:02:14;99692.86;;;0.43;65.80
69127;BME280;56688;50.234;19.292;2023-02-11T07:04:43;99690.14;;;0.44;65.58
69127;BME280;56688;50.234;19.292;2023-02-11T07:07:10;99686.58;;;0.48;65.60
69127;BME280;56688;50.234;19.292;2023-02-11T07:09:36;99693.52;;;0.49;65.30
69127;BME280;56688;50.234;19.292;2023-02-11T07:12:03;99694.75;;;0.52;65.22
69127;BME280;56688;50.234;19.292;2023-02-11T07:14:30;99701.92;;;0.58;65.20
69127;BME280;56688;50.234;19.292;2023-02-11T07:16:57;99706.30;;;0.64;65.42
69127;BME280;56688;50.234;19.292;2023-02-11T07:19:24;99708.01;;;0.67;65.24
69127;BME280;56688;50.234;19.292;2023-02-11T07:21:50;99710.17;;;0.69;65.16
69127;BME280;56688;50.234;19.292;2023-02-11T07:24:17;99709.27;;;0.72;65.32
69127;BME280;56688;50.234;19.292;2023-02-11T07:26:44;99700.56;;;0.74;64.92
69127;BME280;56688;50.234;19.292;2023-02-11T07:29:11;99698.54;;;0.75;64.88
69127;BME280;56688;50.234;19.292;2023-02-11T07:31:39;99691.75;;;0.77;64.91
69127;BME280;56688;50.234;19.292;2023-02-11T07:34:05;99687.02;;;0.82;64.81
69127;BME280;56688;50.234;19.292;2023-02-11T07:36:32;99683.13;;;0.89;64.67
69127;BME280;56688;50.234;19.292;2023-02-11T07:38:59;99687.02;;;0.99;64.34
69127;BME280;56688;50.234;19.292;2023-02-11T07:41:26;99692.18;;;1.09;64.01
69127;BME280;56688;50.234;19.292;2023-02-11T07:43:53;99693.20;;;1.15;63.74
69127;BME280;56688;50.234;19.292;2023-02-11T07:46:23;99687.85;;;1.21;63.70
69127;BME280;56688;50.234;19.292;2023-02-11T07:48:51;99680.65;;;1.29;63.29
69127;BME280;56688;50.234;19.292;2023-02-11T07:51:24;99676.94;;;1.40;63.23
69127;BME280;56688;50.234;19.292;2023-02-11T07:53:51;99683.55;;;1.62;62.83
69127;BME280;56688;50.234;19.292;2023-02-11T07:56:20;99677.55;;;1.86;62.00
69127;BME280;56688;50.234;19.292;2023-02-11T07:58:47;99679.08;;;2.07;61.49
69127;BME280;56688;50.234;19.292;2023-02-11T08:01:19;99669.89;;;2.26;60.69
69127;BME280;56688;50.234;19.292;2023-02-11T08:03:48;99659.33;;;2.43;60.25
69127;BME280;56688;50.234;19.292;2023-02-11T08:06:16;99660.69;;;2.59;59.63
69127;BME280;56688;50.234;19.292;2023-02-11T08:08:44;99663.77;;;2.79;59.08
69127;BME280;56688;50.234;19.292;2023-02-11T08:11:13;99665.30;;;3.09;58.65
69127;BME280;56688;50.234;19.292;2023-02-11T08:13:41;99663.23;;;3.37;57.53
69127;BME280;56688;50.234;19.292;2023-02-11T08:16:08;99665.44;;;3.57;57.11
69127;BME280;56688;50.234;19.292;2023-02-11T08:18:35;99657.58;;;3.68;56.49
69127;BME280;56688;50.234;19.292;2023-02-11T08:21:04;99663.71;;;3.77;56.17
69127;BME280;56688;50.234;19.292;2023-02-11T08:23:31;99651.81;;;3.85;55.77
69127;BME280;56688;50.234;19.292;2023-02-11T08:26:02;99652.96;;;4.00;55.74
69127;BME280;56688;50.234;19.292;2023-02-11T08:28:29;99647.43;;;4.26;55.09
69127;BME280;56688;50.234;19.292;2023-02-11T08:30:56;99651.83;;;4.26;54.55
69127;BME280;56688;50.234;19.292;2023-02-11T08:33:23;99663.52;;;4.17;54.75
69127;BME280;56688;50.234;19.292;2023-02-11T08:35:49;99668.45;;;4.08;55.27
69127;BME280;56688;50.234;19.292;2023-02-11T08:38:17;99675.02;;;3.96;55.34
69127;BME280;56688;50.234;19.292;2023-02-11T08:40:43;99669.27;;;3.81;55.87
69127;BME280;56688;50.234;19.292;2023-02-11T08:43:10;99667.03;;;3.62;56.20
69127;BME280;56688;50.234;19.292;2023-02-11T08:45:37;99662.33;;;3.47;56.44
69127;BME280;56688;50.234;19.292;2023-02-11T08:48:04;99655.43;;;3.33;56.91
69127;BME280;56688;50.234;19.292;2023-02-11T08:50:30;99657.34;;;3.24;57.28
69127;BME280;56688;50.234;19.292;2023-02-11T08:52:57;99653.77;;;3.23;57.69
69127;BME280;56688;50.234;19.292;2023-02-11T08:55:24;99648.05;;;3.26;57.58
69127;BME280;56688;50.234;19.292;2023-02-11T08:57:51;99650.85;;;3.30;57.25
69127;BME280;56688;50.234;19.292;2023-02-11T09:00:18;99645.95;;;3.35;57.26
69127;BME280;56688;50.234;19.292;2023-02-11T09:02:45;99647.96;;;3.32;56.97
69127;BME280;56688;50.234;19.292;2023-02-11T09:05:12;99650.70;;;3.30;57.03
69127;BME280;56688;50.234;19.292;2023-02-11T09:07:39;99640.61;;;3.26;57.37
69127;BME280;56688;50.234;19.292;2023-02-11T09:10:06;99640.97;;;3.24;57.31
69127;BME280;56688;50.234;19.292;2023-02-11T09:12:34;99647.10;;;3.22;57.31
69127;BME280;56688;50.234;19.292;2023-02-11T09:15:01;99662.94;;;3.27;57.70
69127;BME280;56688;50.234;19.292;2023-02-11T09:17:27;99663.66;;;3.27;57.36
69127;BME280;56688;50.234;19.292;2023-02-11T09:19:54;99665.27;;;3.24;57.53
69127;BME280;56688;50.234;19.292;2023-02-11T09:22:21;99667.73;;;3.24;57.65
69127;BME280;56688;50.234;19.292;2023-02-11T09:24:48;99676.17;;;3.24;57.71
69127;BME280;56688;50.234;19.292;2023-02-11T09:27:14;99674.75;;;3.24;57.90
69127;BME280;56688;50.234;19.292;2023-02-11T09:29:41;99681.42;;;3.25;58.02
69127;BME280;56688;50.234;19.292;2023-02-11T09:32:08;99677.26;;;3.26;58.09
69127;BME280;56688;50.234;19.292;2023-02-11T09:34:35;99684.95;;;3.29;58.16
69127;BME280;56688;50.234;19.292;2023-02-11T09:37:02;99686.18;;;3.37;58.26
69127;BME280;56688;50.234;19.292;2023-02-11T09:39:29;99680.25;;;3.43;57.90
69127;BME280;56688;50.234;19.292;2023-02-11T09:44:32;99677.89;;;3.44;57.60
69127;BME280;56688;50.234;19.292;2023-02-11T09:47:05;99683.29;;;3.45;57.50
69127;BME280;56688;50.234;19.292;2023-02-11T09:49:40;99691.94;;;3.42;57.62
69127;BME280;56688;50.234;19.292;2023-02-11T09:52:29;99691.63;;;3.39;57.66
69127;BME280;56688;50.234;19.292;2023-02-11T09:54:58;99687.20;;;3.40;57.95
69127;BME280;56688;50.234;19.292;2023-02-11T09:57:30;99672.70;;;3.43;58.16
69127;BME280;56688;50.234;19.292;2023-02-11T09:59:58;99669.39;;;3.44;58.04
69127;BME280;56688;50.234;19.292;2023-02-11T10:02:28;99665.58;;;3.46;57.78
69127;BME280;56688;50.234;19.292;2023-02-11T10:07:55;99650.48;;;3.48;57.72
69127;BME280;56688;50.234;19.292;2023-02-11T10:15:41;99645.63;;;3.79;57.23
69127;BME280;56688;50.234;19.292;2023-02-11T10:23:41;99632.60;;;4.06;56.89
69127;BME280;56688;50.234;19.292;2023-02-11T10:26:13;99620.67;;;4.16;56.41
69127;BME280;56688;50.234;19.292;2023-02-11T10:28:45;99614.98;;;4.24;56.28
69127;BME280;56688;50.234;19.292;2023-02-11T10:31:23;99598.55;;;4.29;56.38
69127;BME280;56688;50.234;19.292;2023-02-11T10:33:57;99590.84;;;4.39;56.12
69127;BME280;56688;50.234;19.292;2023-02-11T10:36:29;99587.63;;;4.53;55.91
69127;BME280;56688;50.234;19.292;2023-02-11T10:39:08;99569.44;;;4.66;54.92
69127;BME280;56688;50.234;19.292;2023-02-11T10:41:42;99557.27;;;4.70;54.89
69127;BME280;56688;50.234;19.292;2023-02-11T10:44:21;99547.66;;;4.75;54.96
69127;BME280;56688;50.234;19.292;2023-02-11T10:46:50;99537.57;;;4.82;54.93
69127;BME280;56688;50.234;19.292;2023-02-11T10:49:42;99527.13;;;4.89;54.63
69127;BME280;56688;50.234;19.292;2023-02-11T10:57:34;99486.02;;;5.67;52.76
69127;BME280;56688;50.234;19.292;2023-02-11T11:00:41;99479.12;;;5.81;52.08
69127;BME280;56688;50.234;19.292;2023-02-11T11:02:56;99468.45;;;5.84;52.00
69127;BME280;56688;50.234;19.292;2023-02-11T11:05:29;99473.27;;;6.06;51.76
69127;BME280;56688;50.234;19.292;2023-02-11T11:07:59;99475.69;;;6.40;51.49
69127;BME280;56688;50.234;19.292;2023-02-11T11:10:33;99478.55;;;6.63;50.20
69127;BME280;56688;50.234;19.292;2023-02-11T11:13:01;99484.62;;;6.61;50.38
69127;BME280;56688;50.234;19.292;2023-02-11T11:15:30;99501.25;;;6.47;50.20
69127;BME280;56688;50.234;19.292;2023-02-11T11:18:14;99507.30;;;6.21;50.74
69127;BME280;56688;50.234;19.292;2023-02-11T11:21:12;99507.70;;;5.91;51.67
69127;BME280;56688;50.234;19.292;2023-02-11T11:23:50;99507.39;;;5.53;52.47
69127;BME280;56688;50.234;19.292;2023-02-11T11:26:18;99514.27;;;5.24;53.10
69127;BME280;56688;50.234;19.292;2023-02-11T11:31:14;99514.21;;;4.77;54.56
69127;BME280;56688;50.234;19.292;2023-02-11T11:33:45;99514.02;;;4.58;55.25
69127;BME280;56688;50.234;19.292;2023-02-11T11:36:19;99517.23;;;4.46;55.81
69127;BME280;56688;50.234;19.292;2023-02-11T11:38:58;99506.48;;;4.35;56.28
69127;BME280;56688;50.234;19.292;2023-02-11T11:41:27;99504.20;;;4.27;56.60
69127;BME280;56688;50.234;19.292;2023-02-11T11:44:23;99514.17;;;4.18;56.86
69127;BME280;56688;50.234;19.292;2023-02-11T11:47:06;99522.51;;;4.14;57.39
69127;BME280;56688;50.234;19.292;2023-02-11T11:52:17;99516.61;;;4.08;58.05
69127;BME280;56688;50.234;19.292;2023-02-11T11:54:50;99509.41;;;4.05;57.92
69127;BME280;56688;50.234;19.292;2023-02-11T11:57:25;99511.80;;;4.02;58.11
69127;BME280;56688;50.234;19.292;2023-02-11T11:59:55;99513.25;;;3.99;58.48
69127;BME280;56688;50.234;19.292;2023-02-11T12:05:12;99514.52;;;3.97;58.84
69127;BME280;56688;50.234;19.292;2023-02-11T12:10:30;99512.26;;;3.89;59.41
69127;BME280;56688;50.234;19.292;2023-02-11T12:24:25;99515.55;;;3.81;61.45
69127;BME280;56688;50.234;19.292;2023-02-11T12:27:05;99510.36;;;3.82;61.97
69127;BME280;56688;50.234;19.292;2023-02-11T12:40:29;99497.30;;;3.69;64.23
69127;BME280;56688;50.234;19.292;2023-02-11T12:51:46;99454.40;;;3.55;64.00
69127;BME280;56688;50.234;19.292;2023-02-11T13:02:16;99439.58;;;3.44;65.51
69127;BME280;56688;50.234;19.292;2023-02-11T13:04:50;99439.41;;;3.42;66.14
69127;BME280;56688;50.234;19.292;2023-02-11T13:07:27;99452.69;;;3.39;66.29
69127;BME280;56688;50.234;19.292;2023-02-11T13:10:02;99454.77;;;3.34;66.05
69127;BME280;56688;50.234;19.292;2023-02-11T13:12:34;99460.98;;;3.31;66.28
69127;BME280;56688;50.234;19.292;2023-02-11T13:15:18;99465.02;;;3.29;66.30
69127;BME280;56688;50.234;19.292;2023-02-11T13:17:48;99466.94;;;3.25;66.16
69127;BME280;56688;50.234;19.292;2023-02-11T13:23:20;99440.81;;;3.17;66.36
69127;BME280;56688;50.234;19.292;2023-02-11T13:25:53;99429.44;;;3.14;66.75
69127;BME280;56688;50.234;19.292;2023-02-11T13:28:41;99431.91;;;3.14;66.55
69127;BME280;56688;50.234;19.292;2023-02-11T13:31:12;99431.55;;;3.13;66.62
69127;BME280;56688;50.234;19.292;2023-02-11T13:33:42;99426.05;;;3.14;66.95
69127;BME280;56688;50.234;19.292;2023-02-11T13:36:13;99403.22;;;3.13;66.97
69127;BME280;56688;50.234;19.292;2023-02-11T13:38:50;99378.88;;;3.14;67.78
69127;BME280;56688;50.234;19.292;2023-02-11T13:41:25;99358.63;;;3.12;68.26
69127;BME280;56688;50.234;19.292;2023-02-11T13:46:28;99353.34;;;3.14;67.98
69127;BME280;56688;50.234;19.292;2023-02-11T13:48:56;99362.70;;;3.14;68.19
69127;BME280;56688;50.234;19.292;2023-02-11T13:51:40;99368.00;;;3.13;67.96
69127;BME280;56688;50.234;19.292;2023-02-11T13:54:18;99370.77;;;3.12;68.22
69127;BME280;56688;50.234;19.292;2023-02-11T13:59:53;99369.13;;;3.09;68.71
69127;BME280;56688;50.234;19.292;2023-02-11T14:02:36;99373.30;;;3.09;68.81
69127;BME280;56688;50.234;19.292;2023-02-11T14:05:21;99385.15;;;3.10;69.02
69127;BME280;56688;50.234;19.292;2023-02-11T14:10:54;99417.63;;;3.11;69.01
69127;BME280;56688;50.234;19.292;2023-02-11T14:13:30;99422.41;;;3.11;69.35
69127;BME280;56688;50.234;19.292;2023-02-11T14:16:13;99425.75;;;3.14;69.31
69127;BME280;56688;50.234;19.292;2023-02-11T14:21:21;99424.12;;;3.19;69.12
69127;BME280;56688;50.234;19.292;2023-02-11T14:23:52;99431.10;;;3.19;69.08
69127;BME280;56688;50.234;19.292;2023-02-11T14:26:30;99436.98;;;3.20;69.33
69127;BME280;56688;50.234;19.292;2023-02-11T14:29:10;99445.55;;;3.19;69.49
69127;BME280;56688;50.234;19.292;2023-02-11T14:31:48;99439.87;;;3.15;70.47
69127;BME280;56688;50.234;19.292;2023-02-11T14:40:08;99448.34;;;2.99;73.69
69127;BME280;56688;50.234;19.292;2023-02-11T14:42:37;99452.60;;;2.89;74.75
69127;BME280;56688;50.234;19.292;2023-02-11T14:45:08;99457.60;;;2.81;75.50
69127;BME280;56688;50.234;19.292;2023-02-11T14:48:13;99458.73;;;2.75;76.19
69127;BME280;56688;50.234;19.292;2023-02-11T14:50:57;99450.19;;;2.70;76.86
69127;BME280;56688;50.234;19.292;2023-02-11T14:53:27;99439.77;;;2.66;77.53
69127;BME280;56688;50.234;19.292;2023-02-11T14:55:56;99440.75;;;2.60;78.13
69127;BME280;56688;50.234;19.292;2023-02-11T14:58:26;99442.34;;;2.57;78.61
69127;BME280;56688;50.234;19.292;2023-02-11T15:00:57;99444.19;;;2.56;78.73
69127;BME280;56688;50.234;19.292;2023-02-11T15:08:44;99447.66;;;2.40;79.35
69127;BME280;56688;50.234;19.292;2023-02-11T15:11:14;99451.38;;;2.38;79.50
69127;BME280;56688;50.234;19.292;2023-02-11T15:13:43;99444.96;;;2.34;79.76
69127;BME280;56688;50.234;19.292;2023-02-11T15:16:19;99453.70;;;2.30;79.86
69127;BME280;56688;50.234;19.292;2023-02-11T15:18:52;99456.86;;;2.25;80.21
69127;BME280;56688;50.234;19.292;2023-02-11T15:21:25;99464.10;;;2.22;80.37
69127;BME280;56688;50.234;19.292;2023-02-11T15:23:58;99466.40;;;2.22;80.59